Time;durP1;ratioP1;P1;durP2;ratioP2;P2;SDS_P1;SDS_P2;PMS_P1;PMS_P2;Temp;Humidity;BMP_temperature;BMP_pressure;BME280_temperature;BME280_humidity;BME280_pressure;Samples;Min_cycle;Max_cycle;Signal;HPM_P1;HPM_P2
2023/05/07 00:02:23;;;;;;;4.35;3.53;;;15.10;99.90;;;;;;4959060;28;20030;-71
2023/05/07 00:04:50;;;;;;;4.22;3.65;;;15.10;99.90;;;;;;4958889;28;20042;-71
2023/05/07 00:07:16;;;;;;;5.35;3.78;;;15.00;99.90;;;;;;4961938;28;20487;-71
2023/05/07 00:09:42;;;;;;;5.55;3.63;;;15.00;99.90;;;;;;4950536;28;20034;-71
2023/05/07 00:12:09;;;;;;;6.45;4.13;;;15.00;99.90;;;;;;4967721;28;20057;-71
2023/05/07 00:14:35;;;;;;;4.32;3.70;;;15.00;99.90;;;;;;4951662;28;20046;-71
2023/05/07 00:17:02;;;;;;;7.03;4.90;;;15.00;99.90;;;;;;4954480;28;20053;-71
2023/05/07 00:19:28;;;;;;;7.65;5.32;;;14.90;99.90;;;;;;4955123;28;20050;-71
2023/05/07 00:21:55;;;;;;;7.25;4.70;;;14.90;99.90;;;;;;4949830;28;20039;-71
2023/05/07 00:24:22;;;;;;;5.13;3.40;;;14.90;99.90;;;;;;4958276;28;20042;-71
2023/05/07 00:26:48;;;;;;;4.88;4.28;;;14.90;99.90;;;;;;4962864;28;20037;-72
2023/05/07 00:29:14;;;;;;;7.30;6.00;;;14.80;99.90;;;;;;4960381;28;20556;-71
2023/05/07 00:31:41;;;;;;;6.50;5.10;;;14.80;99.90;;;;;;4950311;28;20522;-71
2023/05/07 00:34:07;;;;;;;5.35;4.45;;;14.70;99.90;;;;;;4966078;28;20038;-72
2023/05/07 00:36:34;;;;;;;5.05;3.92;;;14.70;99.90;;;;;;4953789;28;20406;-71
2023/05/07 00:39:03;;;;;;;5.70;4.07;;;14.70;99.90;;;;;;4956675;28;20501;-71
2023/05/07 00:41:32;;;;;;;6.13;5.55;;;14.70;99.90;;;;;;4949578;28;20510;-71
2023/05/07 00:43:58;;;;;;;8.15;5.95;;;14.60;99.90;;;;;;4948552;28;20046;-71
2023/05/07 00:46:25;;;;;;;6.63;5.03;;;14.60;99.90;;;;;;4942095;28;20034;-71
2023/05/07 00:48:53;;;;;;;6.97;4.68;;;14.60;99.90;;;;;;4959785;28;20034;-71
2023/05/07 00:51:20;;;;;;;5.45;4.95;;;14.50;99.90;;;;;;4940785;28;20057;-71
2023/05/07 00:53:46;;;;;;;7.18;5.40;;;14.50;99.90;;;;;;4950906;28;20034;-71
2023/05/07 00:56:13;;;;;;;5.65;4.28;;;14.50;99.90;;;;;;4957005;28;20386;-71
2023/05/07 00:58:40;;;;;;;4.40;3.97;;;14.40;99.90;;;;;;4956248;28;20038;-71
2023/05/07 01:01:07;;;;;;;7.07;5.63;;;14.40;99.90;;;;;;4948067;28;20045;-71
2023/05/07 01:03:34;;;;;;;6.47;5.82;;;14.40;99.90;;;;;;4965688;28;20618;-71
2023/05/07 01:06:01;;;;;;;5.80;5.15;;;14.30;99.90;;;;;;4958432;28;20038;-71
2023/05/07 01:08:29;;;;;;;5.15;4.60;;;14.20;99.90;;;;;;4959970;28;20039;-71
2023/05/07 01:10:56;;;;;;;8.07;5.80;;;14.20;99.90;;;;;;4952748;28;20038;-71
2023/05/07 01:13:24;;;;;;;5.53;4.18;;;14.20;99.90;;;;;;4950221;28;20457;-71
2023/05/07 01:15:51;;;;;;;5.43;4.85;;;14.20;99.90;;;;;;4936209;28;20330;-71
2023/05/07 01:18:17;;;;;;;5.25;4.75;;;14.20;99.90;;;;;;4937467;28;20039;-71
2023/05/07 01:20:44;;;;;;;5.38;4.57;;;14.10;99.90;;;;;;4964844;28;20039;-71
2023/05/07 01:23:11;;;;;;;6.35;4.75;;;14.10;99.90;;;;;;4951937;28;20038;-71
2023/05/07 01:25:38;;;;;;;5.90;5.38;;;14.10;99.90;;;;;;4951511;28;20041;-72
2023/05/07 01:28:05;;;;;;;7.20;5.55;;;14.00;99.90;;;;;;4959123;28;20049;-71
2023/05/07 01:30:35;;;;;;;6.80;6.18;;;14.10;99.90;;;;;;4973358;28;20509;-71
2023/05/07 01:33:08;;;;;;;8.38;7.57;;;14.00;99.90;;;;;;4942025;28;20071;-71
2023/05/07 01:35:45;;;;;;;7.95;6.50;;;14.10;99.90;;;;;;4920000;28;20053;-71
2023/05/07 01:38:12;;;;;;;6.45;5.90;;;14.10;99.90;;;;;;4937058;28;20406;-71
2023/05/07 01:40:38;;;;;;;6.50;5.90;;;14.10;99.90;;;;;;4946960;28;21061;-71
2023/05/07 01:43:06;;;;;;;6.15;5.65;;;14.20;99.90;;;;;;4934576;28;20466;-71
2023/05/07 01:45:34;;;;;;;8.15;7.25;;;14.20;99.90;;;;;;4936543;28;20034;-71
2023/05/07 01:48:02;;;;;;;6.85;5.22;;;14.20;99.90;;;;;;4955705;28;20199;-71
2023/05/07 01:50:30;;;;;;;6.88;5.93;;;14.20;99.90;;;;;;4953654;28;20053;-71
2023/05/07 01:52:56;;;;;;;7.50;6.88;;;14.20;99.90;;;;;;4958234;28;20045;-71
2023/05/07 01:55:23;;;;;;;6.93;6.00;;;14.30;99.90;;;;;;4943997;28;20422;-71
2023/05/07 01:57:50;;;;;;;7.53;6.72;;;14.30;99.90;;;;;;4939599;28;20034;-71
2023/05/07 02:00:18;;;;;;;6.70;6.10;;;14.30;99.90;;;;;;4953257;28;20500;-71
2023/05/07 02:02:45;;;;;;;6.15;5.57;;;14.30;99.90;;;;;;4954192;28;20042;-71
2023/05/07 02:05:23;;;;;;;7.05;6.35;;;14.30;99.90;;;;;;4952671;28;20038;-71
2023/05/07 02:07:57;;;;;;;7.40;6.70;;;14.30;99.90;;;;;;4955042;28;20039;-71
2023/05/07 02:10:24;;;;;;;6.75;6.15;;;14.30;99.90;;;;;;4951581;28;20031;-72
2023/05/07 02:12:50;;;;;;;7.88;6.35;;;14.30;99.90;;;;;;4945715;28;20061;-72
2023/05/07 02:15:17;;;;;;;7.00;6.40;;;14.30;99.90;;;;;;4930021;28;22092;-72
2023/05/07 02:18:04;;;;;;;7.18;6.47;;;14.40;99.90;;;;;;4977440;28;20058;-72
2023/05/07 02:20:31;;;;;;;6.55;5.95;;;14.40;99.90;;;;;;4951256;28;20038;-72
2023/05/07 02:22:57;;;;;;;6.10;5.20;;;14.40;99.90;;;;;;4954936;28;20421;-72
2023/05/07 02:25:25;;;;;;;7.75;6.40;;;14.40;99.90;;;;;;4968438;28;20532;-72
2023/05/07 02:27:51;;;;;;;6.75;6.05;;;14.40;99.90;;;;;;4971408;28;20038;-72
2023/05/07 02:30:21;;;;;;;7.13;6.43;;;14.40;99.90;;;;;;4969977;28;20034;-72
2023/05/07 02:32:52;;;;;;;6.43;5.63;;;14.40;99.90;;;;;;4952767;28;20034;-72
2023/05/07 02:35:19;;;;;;;7.35;6.68;;;14.40;99.90;;;;;;4956932;28;20046;-72
2023/05/07 02:37:45;;;;;;;7.28;6.25;;;14.40;99.90;;;;;;4948383;28;20046;-72
2023/05/07 02:40:12;;;;;;;7.05;5.68;;;14.40;99.90;;;;;;4945018;28;20034;-72
2023/05/07 02:42:38;;;;;;;8.10;7.30;;;14.40;99.90;;;;;;4937125;28;20042;-72
2023/05/07 02:45:05;;;;;;;7.80;6.68;;;14.30;99.90;;;;;;4951590;28;20473;-72
2023/05/07 02:47:31;;;;;;;7.97;6.50;;;14.30;99.90;;;;;;4939019;28;20038;-72
2023/05/07 02:50:01;;;;;;;9.50;7.75;;;14.30;99.90;;;;;;4953731;28;20045;-72
2023/05/07 02:52:27;;;;;;;9.02;7.05;;;14.30;99.90;;;;;;4952397;28;20046;-72
2023/05/07 02:54:54;;;;;;;8.60;6.85;;;14.20;99.90;;;;;;4953534;28;20282;-72
2023/05/07 02:57:20;;;;;;;7.30;6.60;;;14.20;99.90;;;;;;4944736;28;20406;-72
2023/05/07 02:59:46;;;;;;;11.10;8.85;;;14.20;99.90;;;;;;4956915;28;20065;-72
2023/05/07 03:02:14;;;;;;;7.22;6.03;;;14.20;99.90;;;;;;4957370;28;20045;-72
2023/05/07 03:04:41;;;;;;;6.38;5.78;;;14.30;99.90;;;;;;4951104;28;21354;-72
2023/05/07 03:07:07;;;;;;;8.95;8.05;;;14.20;99.90;;;;;;4953382;28;20502;-72
2023/05/07 03:09:33;;;;;;;9.75;7.55;;;14.20;99.90;;;;;;4939716;28;20393;-72
2023/05/07 03:12:01;;;;;;;8.77;7.88;;;14.20;99.90;;;;;;4937741;28;20054;-73
2023/05/07 03:14:28;;;;;;;7.03;6.18;;;14.20;99.90;;;;;;4952630;28;20042;-72
2023/05/07 03:16:54;;;;;;;7.20;6.50;;;14.30;99.90;;;;;;4954274;28;20042;-72
2023/05/07 03:19:21;;;;;;;6.65;6.00;;;14.30;99.90;;;;;;4958474;28;20026;-72
2023/05/07 03:21:47;;;;;;;7.50;6.57;;;14.20;99.90;;;;;;4955214;28;20050;-72
2023/05/07 03:24:14;;;;;;;9.07;7.85;;;14.30;99.90;;;;;;4956051;28;20046;-72
2023/05/07 03:26:40;;;;;;;8.90;6.75;;;14.20;99.90;;;;;;4956659;28;20400;-72
2023/05/07 03:29:06;;;;;;;10.88;9.63;;;14.20;99.90;;;;;;4953830;28;20045;-72
2023/05/07 03:31:33;;;;;;;9.82;7.38;;;14.20;99.90;;;;;;4935277;28;20041;-72
2023/05/07 03:34:00;;;;;;;17.15;12.52;;;14.20;99.90;;;;;;4950016;28;20393;-73
2023/05/07 03:36:27;;;;;;;11.85;10.45;;;14.20;99.90;;;;;;4952826;28;20118;-72
2023/05/07 03:38:54;;;;;;;10.02;7.97;;;14.10;99.90;;;;;;4969876;28;20041;-72
2023/05/07 03:41:25;;;;;;;12.45;9.70;;;14.10;99.90;;;;;;4952397;28;20046;-72
2023/05/07 03:43:52;;;;;;;15.10;13.50;;;14.10;99.90;;;;;;4942205;28;20026;-72
2023/05/07 03:46:18;;;;;;;12.00;10.82;;;14.10;99.90;;;;;;4946710;28;20436;-72
2023/05/07 03:48:44;;;;;;;10.00;9.00;;;14.00;99.90;;;;;;4954053;28;20039;-72
2023/05/07 03:51:13;;;;;;;14.85;12.32;;;14.00;99.90;;;;;;4948263;28;20601;-72
2023/05/07 03:53:39;;;;;;;13.98;12.18;;;14.00;99.90;;;;;;4949799;28;20053;-72
2023/05/07 03:56:05;;;;;;;16.55;14.35;;;14.00;99.90;;;;;;4954085;28;20057;-72
2023/05/07 03:58:36;;;;;;;23.02;20.85;;;14.00;99.90;;;;;;4970784;28;20542;-72
2023/05/07 04:01:07;;;;;;;15.85;14.25;;;14.00;99.90;;;;;;4950955;28;20397;-72
2023/05/07 04:03:33;;;;;;;12.43;11.18;;;14.00;99.90;;;;;;4941708;28;20433;-72
2023/05/07 04:06:00;;;;;;;18.65;16.75;;;14.00;99.90;;;;;;4945805;28;20508;-72
2023/05/07 04:08:27;;;;;;;13.70;11.90;;;14.00;99.90;;;;;;4945249;28;20053;-72
2023/05/07 04:10:58;;;;;;;14.80;13.38;;;14.00;99.90;;;;;;4934734;28;20030;-72
2023/05/07 04:13:27;;;;;;;14.43;13.00;;;14.10;99.90;;;;;;4932159;28;20034;-72
2023/05/07 04:15:55;;;;;;;18.17;16.23;;;14.10;99.90;;;;;;4934885;28;20504;-72
2023/05/07 04:18:22;;;;;;;12.93;11.63;;;14.10;99.90;;;;;;4936039;28;20053;-72
2023/05/07 04:20:49;;;;;;;14.60;13.10;;;14.10;99.90;;;;;;4950955;28;20030;-72
2023/05/07 04:23:16;;;;;;;16.35;14.75;;;14.10;99.90;;;;;;4948906;28;20043;-72
2023/05/07 04:25:43;;;;;;;11.45;10.30;;;14.10;99.90;;;;;;4973041;28;20531;-72
2023/05/07 04:28:18;;;;;;;15.05;13.65;;;14.10;99.90;;;;;;4959219;28;20038;-72
2023/05/07 04:30:44;;;;;;;15.60;13.68;;;14.20;99.90;;;;;;4938883;28;22802;-71
2023/05/07 04:33:11;;;;;;;12.88;11.68;;;14.20;99.90;;;;;;4933786;28;20590;-72
2023/05/07 04:35:40;;;;;;;19.65;17.58;;;14.20;99.90;;;;;;4950703;28;20049;-73
2023/05/07 04:38:06;;;;;;;16.70;15.02;;;14.20;99.90;;;;;;4957953;28;20042;-72
2023/05/07 04:40:35;;;;;;;13.35;12.15;;;14.20;99.90;;;;;;4933986;28;20038;-72
2023/05/07 04:43:02;;;;;;;11.82;10.73;;;14.20;99.90;;;;;;4951438;28;20037;-72
2023/05/07 04:45:32;;;;;;;14.52;13.00;;;14.20;99.90;;;;;;4953797;28;20509;-73
2023/05/07 04:47:58;;;;;;;16.27;14.57;;;14.20;99.90;;;;;;4977730;28;21457;-73
2023/05/07 04:50:25;;;;;;;16.00;14.50;;;14.20;99.90;;;;;;4955121;28;20477;-73
2023/05/07 04:52:55;;;;;;;17.58;15.82;;;14.30;99.90;;;;;;4956108;28;20040;-73
2023/05/07 04:55:23;;;;;;;14.43;12.93;;;14.20;99.90;;;;;;4932641;28;20042;-73
2023/05/07 04:57:50;;;;;;;13.15;11.88;;;14.20;99.90;;;;;;4954822;28;20046;-72
2023/05/07 05:00:19;;;;;;;15.02;13.68;;;14.30;99.90;;;;;;4949169;28;20616;-72
2023/05/07 05:02:46;;;;;;;15.18;13.88;;;14.30;99.90;;;;;;4952501;28;20049;-72
2023/05/07 05:05:16;;;;;;;20.70;18.45;;;14.30;99.90;;;;;;4953056;28;20509;-72
2023/05/07 05:07:44;;;;;;;17.55;15.68;;;14.30;99.90;;;;;;4955819;28;20531;-73
2023/05/07 05:10:11;;;;;;;20.60;18.55;;;14.40;99.90;;;;;;4955042;28;20038;-72
2023/05/07 05:12:40;;;;;;;16.85;15.15;;;14.40;99.90;;;;;;4955119;28;20548;-72
2023/05/07 05:15:07;;;;;;;19.88;18.08;;;14.40;99.90;;;;;;4968527;28;20401;-72
2023/05/07 05:17:36;;;;;;;15.07;13.68;;;14.40;99.90;;;;;;4954066;28;20038;-72
2023/05/07 05:20:05;;;;;;;15.82;14.10;;;14.40;99.90;;;;;;4966960;28;20361;-72
2023/05/07 05:22:32;;;;;;;17.10;15.40;;;14.40;99.90;;;;;;4951891;28;20041;-72
2023/05/07 05:25:00;;;;;;;17.90;16.25;;;14.40;99.90;;;;;;4949436;28;20046;-72
2023/05/07 05:27:28;;;;;;;24.48;22.02;;;14.50;99.90;;;;;;4938054;28;20045;-72
2023/05/07 05:29:54;;;;;;;18.30;16.50;;;14.50;99.90;;;;;;4954050;28;20034;-72
2023/05/07 05:32:21;;;;;;;18.70;16.77;;;14.50;99.90;;;;;;4948926;28;20473;-73
2023/05/07 05:34:48;;;;;;;15.02;13.60;;;14.50;99.90;;;;;;4977827;28;20050;-73
2023/05/07 05:37:14;;;;;;;15.68;14.25;;;14.50;99.90;;;;;;4955836;28;20053;-72
2023/05/07 05:39:42;;;;;;;15.68;14.18;;;14.50;99.90;;;;;;4953675;28;20042;-72
2023/05/07 05:42:10;;;;;;;17.88;16.08;;;14.50;99.90;;;;;;4936393;28;20042;-72
2023/05/07 05:44:36;;;;;;;21.48;19.45;;;14.60;99.90;;;;;;4935942;28;20038;-72
2023/05/07 05:47:03;;;;;;;19.33;17.38;;;14.50;99.90;;;;;;4958120;28;20489;-72
2023/05/07 05:49:30;;;;;;;16.88;15.13;;;14.60;99.90;;;;;;4941635;28;20034;-72
2023/05/07 05:51:56;;;;;;;14.57;13.18;;;14.60;99.90;;;;;;4954701;28;20470;-72
2023/05/07 05:54:25;;;;;;;18.70;16.88;;;14.60;99.90;;;;;;4959112;28;20046;-72
2023/05/07 05:56:51;;;;;;;21.90;19.80;;;14.60;99.90;;;;;;4962504;28;20516;-72
2023/05/07 05:59:18;;;;;;;17.23;15.63;;;14.70;99.90;;;;;;4941065;28;20373;-72
2023/05/07 06:01:45;;;;;;;22.00;19.73;;;14.60;99.90;;;;;;4950496;28;20047;-72
2023/05/07 06:04:11;;;;;;;19.25;17.40;;;14.60;99.90;;;;;;4968214;28;20041;-72
2023/05/07 06:06:38;;;;;;;18.25;16.40;;;14.60;99.90;;;;;;4937752;28;20042;-72
2023/05/07 06:09:05;;;;;;;21.65;19.40;;;14.60;99.90;;;;;;4939985;28;20818;-72
2023/05/07 06:11:37;;;;;;;15.98;14.68;;;14.60;99.90;;;;;;4949618;28;20956;-72
2023/05/07 06:14:04;;;;;;;18.58;16.77;;;14.70;99.90;;;;;;4927627;28;20493;-72
2023/05/07 06:16:31;;;;;;;17.13;15.63;;;14.70;99.90;;;;;;4980624;28;20051;-72
2023/05/07 06:18:58;;;;;;;20.77;18.70;;;14.80;99.90;;;;;;4945238;28;20559;-72
2023/05/07 06:21:24;;;;;;;22.00;19.70;;;14.80;99.90;;;;;;4949658;28;20057;-72
2023/05/07 06:23:52;;;;;;;16.50;14.90;;;14.80;99.90;;;;;;4951136;28;20569;-71
2023/05/07 06:26:19;;;;;;;22.33;20.02;;;14.80;99.90;;;;;;4956131;28;21034;-71
2023/05/07 06:28:47;;;;;;;16.73;15.15;;;14.90;99.90;;;;;;4938932;28;20041;-72
2023/05/07 06:31:17;;;;;;;20.27;18.30;;;14.90;99.90;;;;;;4967823;28;20038;-72
2023/05/07 06:33:49;;;;;;;25.10;22.63;;;14.90;99.90;;;;;;4937563;28;20045;-72
2023/05/07 06:36:16;;;;;;;16.70;15.07;;;15.00;99.90;;;;;;4961224;28;20038;-72
2023/05/07 06:38:43;;;;;;;21.27;19.27;;;15.10;99.90;;;;;;4944904;28;20046;-72
2023/05/07 06:41:10;;;;;;;17.77;16.05;;;15.10;99.90;;;;;;4954819;28;20042;-71
2023/05/07 06:43:38;;;;;;;19.02;17.23;;;15.10;99.90;;;;;;4970394;28;20041;-72
2023/05/07 06:46:24;;;;;;;24.98;22.67;;;15.20;99.90;;;;;;4956425;28;20035;-72
2023/05/07 06:48:52;;;;;;;24.40;22.15;;;15.30;99.90;;;;;;4954101;28;20532;-72
2023/05/07 06:51:18;;;;;;;26.25;23.50;;;15.20;99.90;;;;;;4951930;28;20409;-72
2023/05/07 06:53:44;;;;;;;22.10;20.05;;;15.30;99.90;;;;;;4949121;28;20038;-71
2023/05/07 06:56:11;;;;;;;19.05;16.90;;;15.30;99.90;;;;;;4939162;28;20421;-71
2023/05/07 06:58:39;;;;;;;24.98;22.58;;;15.40;99.90;;;;;;4978399;28;20417;-69
2023/05/07 07:01:07;;;;;;;21.17;19.08;;;15.50;99.90;;;;;;4973489;28;20039;-70
2023/05/07 07:03:34;;;;;;;19.63;17.83;;;15.60;99.90;;;;;;4959745;28;20042;-71
2023/05/07 07:06:01;;;;;;;20.58;18.58;;;15.60;99.90;;;;;;4955495;28;20046;-72
2023/05/07 07:08:29;;;;;;;18.90;17.02;;;15.70;99.90;;;;;;4941230;28;20034;-72
2023/05/07 07:10:56;;;;;;;17.17;15.57;;;15.80;99.90;;;;;;4949982;28;21113;-72
2023/05/07 07:13:23;;;;;;;22.20;20.13;;;15.90;99.90;;;;;;4951600;28;20373;-72
2023/05/07 07:15:49;;;;;;;20.23;18.42;;;16.10;99.90;;;;;;4955493;28;20034;-71
2023/05/07 07:18:17;;;;;;;19.75;17.88;;;16.10;99.90;;;;;;4957901;28;20030;-72
2023/05/07 07:20:45;;;;;;;20.00;18.10;;;16.20;99.90;;;;;;4956496;28;20050;-71
2023/05/07 07:23:11;;;;;;;15.13;13.60;;;16.20;99.90;;;;;;4956728;28;20042;-72
2023/05/07 07:25:38;;;;;;;18.58;16.75;;;16.20;99.90;;;;;;4944663;28;20034;-72
2023/05/07 07:28:05;;;;;;;16.02;14.32;;;16.30;99.90;;;;;;4971038;28;20038;-72
2023/05/07 07:30:32;;;;;;;23.83;21.38;;;16.30;99.90;;;;;;4918481;28;20038;-72
2023/05/07 07:33:03;;;;;;;22.15;20.05;;;16.30;99.90;;;;;;4953083;28;20026;-72
2023/05/07 07:35:34;;;;;;;23.95;21.65;;;16.30;99.90;;;;;;4920683;28;20044;-72
2023/05/07 07:38:04;;;;;;;18.30;16.45;;;16.30;99.90;;;;;;4954665;28;20041;-72
2023/05/07 07:40:30;;;;;;;21.33;18.92;;;16.30;99.90;;;;;;4931939;28;20061;-72
2023/05/07 07:42:57;;;;;;;23.55;21.17;;;16.30;99.90;;;;;;4943920;28;20046;-72
2023/05/07 07:45:24;;;;;;;20.35;18.40;;;16.20;99.90;;;;;;4955244;28;20038;-73
2023/05/07 07:47:52;;;;;;;19.65;17.65;;;16.30;99.90;;;;;;4975575;28;20035;-72
2023/05/07 07:50:18;;;;;;;17.52;15.80;;;16.30;99.90;;;;;;4950356;28;20038;-72
2023/05/07 07:52:45;;;;;;;19.45;17.50;;;16.40;99.90;;;;;;4935755;28;20041;-72
2023/05/07 07:55:20;;;;;;;18.05;15.98;;;16.50;99.90;;;;;;4949067;28;20597;-73
2023/05/07 07:57:47;;;;;;;21.80;19.42;;;16.60;99.90;;;;;;4972203;28;20034;-72
2023/05/07 08:00:14;;;;;;;19.45;16.90;;;16.70;99.90;;;;;;4967813;28;20046;-72
2023/05/07 08:02:43;;;;;;;19.48;17.42;;;16.70;99.90;;;;;;4953198;28;20114;-73
2023/05/07 08:05:13;;;;;;;22.30;20.00;;;16.70;99.90;;;;;;4958132;28;20042;-72
2023/05/07 08:07:40;;;;;;;17.92;15.68;;;16.70;99.90;;;;;;4978457;28;20571;-71
2023/05/07 08:10:06;;;;;;;18.75;16.85;;;16.80;99.90;;;;;;4955991;28;20096;-70
2023/05/07 08:12:33;;;;;;;21.38;19.10;;;16.90;99.90;;;;;;4953662;28;20055;-71
2023/05/07 08:14:59;;;;;;;18.38;16.65;;;16.90;99.90;;;;;;4949421;28;20401;-71
2023/05/07 08:17:27;;;;;;;21.10;18.85;;;16.90;99.90;;;;;;4953483;28;20042;-71
2023/05/07 08:19:53;;;;;;;22.15;19.83;;;16.90;99.90;;;;;;4948919;28;20608;-71
2023/05/07 08:22:19;;;;;;;18.15;16.35;;;16.90;99.90;;;;;;4952559;28;20626;-71
2023/05/07 08:24:46;;;;;;;16.27;14.68;;;16.90;99.90;;;;;;4933705;28;20049;-72
2023/05/07 08:27:13;;;;;;;18.98;16.55;;;16.90;99.90;;;;;;4958870;28;20037;-72
2023/05/07 08:29:42;;;;;;;19.65;17.20;;;16.90;99.90;;;;;;4927643;28;20034;-71
2023/05/07 08:32:08;;;;;;;16.05;14.35;;;16.90;99.90;;;;;;4959202;28;20417;-71
2023/05/07 08:34:34;;;;;;;18.30;16.60;;;17.00;99.90;;;;;;4968976;28;20034;-71
2023/05/07 08:37:04;;;;;;;15.98;14.18;;;17.10;99.90;;;;;;4939418;28;20871;-71
2023/05/07 08:39:31;;;;;;;16.55;14.88;;;17.20;99.90;;;;;;4938982;28;20389;-71
2023/05/07 08:42:01;;;;;;;14.70;13.13;;;17.30;99.90;;;;;;4934707;28;20417;-72
2023/05/07 08:44:34;;;;;;;19.08;17.00;;;17.30;99.90;;;;;;4952214;28;20034;-71
2023/05/07 08:47:02;;;;;;;20.15;17.38;;;17.50;99.90;;;;;;4970174;28;20044;-72
2023/05/07 08:49:29;;;;;;;16.70;15.00;;;17.60;99.90;;;;;;4959244;28;20493;-72
2023/05/07 08:51:56;;;;;;;14.27;12.80;;;17.70;99.90;;;;;;4962101;28;20436;-72
2023/05/07 08:54:24;;;;;;;17.98;16.25;;;17.70;99.90;;;;;;4939545;28;20045;-72
2023/05/07 08:56:51;;;;;;;14.07;12.68;;;17.80;99.90;;;;;;4955295;28;20038;-73
2023/05/07 08:59:18;;;;;;;18.50;15.95;;;17.90;99.90;;;;;;4941721;28;20064;-72
2023/05/07 09:01:45;;;;;;;18.85;16.88;;;18.00;99.90;;;;;;4948305;28;20647;-72
2023/05/07 09:04:12;;;;;;;13.98;12.57;;;18.10;99.90;;;;;;4966191;28;20038;-72
2023/05/07 09:06:41;;;;;;;13.70;12.27;;;18.20;99.90;;;;;;4953523;28;20458;-72
2023/05/07 09:09:09;;;;;;;19.42;16.52;;;18.30;99.90;;;;;;4954637;28;20045;-72
2023/05/07 09:11:35;;;;;;;15.00;13.40;;;18.40;99.90;;;;;;4954668;28;20035;-72
2023/05/07 09:14:02;;;;;;;15.85;14.32;;;18.50;99.90;;;;;;4939604;28;20041;-72
2023/05/07 09:16:33;;;;;;;14.13;12.63;;;18.50;99.90;;;;;;4958161;28;20038;-73
2023/05/07 09:19:00;;;;;;;12.90;11.68;;;18.60;99.90;;;;;;4937052;28;20509;-72
2023/05/07 09:21:28;;;;;;;17.23;15.52;;;18.70;99.90;;;;;;4948402;28;20053;-72
2023/05/07 09:23:57;;;;;;;14.80;13.40;;;18.80;99.90;;;;;;4934136;28;20061;-72
2023/05/07 09:26:32;;;;;;;14.45;12.68;;;18.80;99.90;;;;;;4970054;28;21561;-72
2023/05/07 09:28:59;;;;;;;13.27;11.98;;;18.90;99.90;;;;;;4953726;28;20036;-72
2023/05/07 09:31:26;;;;;;;14.38;12.98;;;19.00;99.90;;;;;;4936359;28;20046;-72
2023/05/07 09:33:55;;;;;;;14.68;13.23;;;19.40;99.90;;;;;;4952516;28;20030;-72
2023/05/07 09:36:24;;;;;;;11.73;10.63;;;19.70;99.90;;;;;;4958452;28;20057;-72
2023/05/07 09:38:51;;;;;;;10.50;9.40;;;19.90;99.90;;;;;;4968435;28;20034;-72
2023/05/07 09:41:17;;;;;;;13.60;12.18;;;20.20;99.90;;;;;;4949179;28;20508;-72
2023/05/07 09:43:56;;;;;;;15.02;12.20;;;20.40;99.90;;;;;;4947181;28;20687;-72
2023/05/07 09:46:31;;;;;;;9.82;8.82;;;20.60;99.90;;;;;;4952399;28;20030;-72
2023/05/07 09:49:01;;;;;;;10.20;8.95;;;20.70;99.90;;;;;;4952354;28;20057;-72
2023/05/07 09:51:31;;;;;;;10.68;9.65;;;20.90;99.90;;;;;;4949345;28;20046;-73
2023/05/07 09:54:03;;;;;;;9.40;8.50;;;20.90;99.90;;;;;;4956960;28;20693;-72
2023/05/07 09:56:31;;;;;;;11.32;9.38;;;21.00;99.90;;;;;;4959896;28;20365;-72
2023/05/07 09:59:02;;;;;;;8.65;7.85;;;21.10;99.90;;;;;;4956094;28;20429;-73
2023/05/07 10:01:32;;;;;;;13.85;12.20;;;21.20;99.90;;;;;;4951344;28;20050;-72
2023/05/07 10:03:59;;;;;;;11.32;9.60;;;21.20;99.90;;;;;;4946132;28;21820;-73
2023/05/07 10:06:26;;;;;;;10.18;9.25;;;21.30;99.90;;;;;;4951998;28;20045;-73
2023/05/07 10:08:53;;;;;;;13.35;12.05;;;21.30;99.90;;;;;;4951661;28;20039;-72
2023/05/07 10:11:21;;;;;;;12.95;11.43;;;21.30;99.90;;;;;;4947476;28;20050;-72
2023/05/07 10:13:48;;;;;;;11.85;10.65;;;21.40;99.90;;;;;;4913163;28;20053;-72
2023/05/07 10:16:15;;;;;;;11.73;10.63;;;21.50;99.90;;;;;;4971455;28;20042;-72
2023/05/07 10:18:48;;;;;;;9.98;9.02;;;21.50;99.90;;;;;;4942597;28;20046;-72
2023/05/07 10:21:21;;;;;;;8.45;7.65;;;21.50;99.90;;;;;;4946602;28;20506;-72
2023/05/07 10:23:53;;;;;;;10.82;9.88;;;21.80;99.90;;;;;;4930339;28;20039;-73
2023/05/07 10:26:22;;;;;;;11.48;10.27;;;21.90;99.90;;;;;;4949705;28;20037;-73
2023/05/07 10:28:53;;;;;;;11.50;10.20;;;22.00;99.90;;;;;;4965540;28;20022;-73
2023/05/07 10:31:34;;;;;;;11.32;9.18;;;22.10;99.90;;;;;;4943424;28;20041;-72
2023/05/07 10:34:02;;;;;;;12.90;10.18;;;22.20;99.90;;;;;;4949320;28;20037;-72
2023/05/07 10:36:30;;;;;;;10.60;9.60;;;22.40;99.90;;;;;;4955874;28;21518;-72
2023/05/07 10:38:57;;;;;;;10.73;9.68;;;22.50;99.90;;;;;;4976468;28;20034;-72
2023/05/07 10:41:25;;;;;;;9.80;8.75;;;22.70;99.90;;;;;;4936626;28;20065;-72
2023/05/07 10:43:52;;;;;;;11.35;9.18;;;22.90;99.90;;;;;;4961865;28;20041;-71
2023/05/07 10:46:23;;;;;;;8.13;7.38;;;23.30;99.90;;;;;;4933662;28;20053;-72
2023/05/07 10:49:00;;;;;;;9.65;8.68;;;23.50;99.90;;;;;;4965357;28;20042;-72
2023/05/07 10:51:33;;;;;;;;;;;23.90;99.90;;;;;;4946621;28;20034;-73
2023/05/07 10:54:14;;;;;;;8.25;6.38;;;24.20;99.90;;;;;;4960756;28;19918;-72
2023/05/07 10:56:50;;;;;;;7.75;6.97;;;24.40;99.90;;;;;;4944388;28;20042;-74
2023/05/07 10:59:22;;;;;;;9.10;7.22;;;24.70;99.90;;;;;;4948466;28;20026;-73
2023/05/07 11:02:03;;;;;;;6.93;6.32;;;24.90;99.90;;;;;;4959659;28;20034;-73
2023/05/07 11:04:38;;;;;;;10.38;9.38;;;25.00;99.90;;;;;;4946471;28;20030;-72
2023/05/07 11:07:25;;;;;;;8.45;6.47;;;25.00;99.90;;;;;;4967169;28;20043;-73
2023/05/07 11:09:53;;;;;;;7.82;7.07;;;25.00;99.90;;;;;;4930775;28;20046;-73
2023/05/07 11:12:36;;;;;;;6.30;5.78;;;25.30;99.90;;;;;;4949931;28;20065;-75
2023/05/07 11:15:10;;;;;;;6.80;6.20;;;25.70;99.90;;;;;;4944774;28;20037;-73
2023/05/07 11:18:03;;;;;;;10.77;9.68;;;25.80;99.90;;;;;;4950437;28;20034;-75
2023/05/07 11:20:54;;;;;;;7.13;6.43;;;25.60;99.90;;;;;;4969219;28;20053;-76
2023/05/07 11:23:47;;;;;;;8.10;7.18;;;25.50;99.90;;;;;;4957645;28;20034;-74
2023/05/07 11:26:42;;;;;;;7.15;6.45;;;25.40;99.90;;;;;;4949646;28;20677;-72
2023/05/07 11:29:22;;;;;;;8.32;7.53;;;25.70;99.90;;;;;;4949449;28;20041;-72
2023/05/07 11:31:55;;;;;;;7.47;6.78;;;25.70;99.90;;;;;;4925569;28;20050;-71
2023/05/07 11:34:26;;;;;;;10.43;9.18;;;25.40;99.90;;;;;;4926764;28;20054;-71
2023/05/07 11:36:55;;;;;;;9.30;8.45;;;25.30;99.90;;;;;;4951620;28;20529;-72
2023/05/07 11:39:32;;;;;;;8.98;7.82;;;25.10;99.90;;;;;;4933877;28;20774;-72
2023/05/07 11:42:00;;;;;;;8.70;7.80;;;25.20;99.90;;;;;;4937149;28;20042;-71
2023/05/07 11:44:43;;;;;;;6.43;5.93;;;25.20;99.90;;;;;;4950110;28;20049;-71
2023/05/07 11:47:11;;;;;;;8.32;7.45;;;25.10;99.90;;;;;;4956453;28;20037;-71
2023/05/07 11:49:37;;;;;;;7.50;6.82;;;25.00;99.90;;;;;;4948084;28;20764;-71
2023/05/07 11:52:04;;;;;;;7.50;6.18;;;24.90;99.90;;;;;;4945365;28;20041;-71
2023/05/07 11:54:37;;;;;;;8.07;7.38;;;24.70;99.90;;;;;;4941861;28;20038;-71
2023/05/07 11:57:04;;;;;;;5.93;5.43;;;24.60;99.90;;;;;;4949252;28;20042;-71
2023/05/07 11:59:30;;;;;;;9.43;8.32;;;24.40;99.90;;;;;;4943019;28;20041;-70
2023/05/07 12:01:58;;;;;;;7.88;7.13;;;24.40;99.90;;;;;;4925077;28;20050;-71
2023/05/07 12:04:25;;;;;;;9.18;6.80;;;24.30;99.90;;;;;;4947462;28;20652;-71
2023/05/07 12:06:55;;;;;;;5.72;5.18;;;24.30;99.90;;;;;;4950843;28;20402;-71
2023/05/07 12:09:21;;;;;;;7.97;7.00;;;24.40;99.90;;;;;;4950526;28;20049;-71
2023/05/07 12:11:48;;;;;;;9.38;7.82;;;24.30;99.90;;;;;;4939799;28;20062;-71
2023/05/07 12:14:16;;;;;;;8.15;7.35;;;24.30;99.90;;;;;;4942283;28;20030;-71
2023/05/07 12:16:42;;;;;;;7.22;6.50;;;24.40;99.90;;;;;;4946577;28;20046;-71
2023/05/07 12:19:12;;;;;;;6.82;6.22;;;24.50;99.90;;;;;;4934727;28;20039;-70
2023/05/07 12:21:39;;;;;;;7.45;6.53;;;24.40;99.90;;;;;;4941917;28;20044;-70
2023/05/07 12:24:06;;;;;;;6.95;5.18;;;24.30;99.90;;;;;;4959663;28;20122;-70
2023/05/07 12:26:36;;;;;;;6.65;5.25;;;24.20;99.90;;;;;;4954807;28;21232;-71
2023/05/07 12:29:03;;;;;;;5.40;4.90;;;24.20;99.90;;;;;;4954024;28;20038;-71
2023/05/07 12:31:30;;;;;;;5.82;5.32;;;24.10;99.90;;;;;;4968251;28;20082;-72
2023/05/07 12:33:56;;;;;;;4.32;3.75;;;24.20;99.90;;;;;;4927334;28;20034;-71
2023/05/07 12:36:22;;;;;;;4.75;4.03;;;24.20;99.90;;;;;;4947300;28;20050;-72
2023/05/07 12:38:54;;;;;;;5.30;4.80;;;24.20;99.90;;;;;;4949987;28;20041;-71
2023/05/07 12:41:25;;;;;;;5.05;4.50;;;24.30;99.90;;;;;;4944443;28;20042;-71
2023/05/07 12:43:57;;;;;;;5.97;4.90;;;24.30;99.90;;;;;;4943493;28;21481;-71